Time;durP1;ratioP1;P1;durP2;ratioP2;P2;SDS_P1;SDS_P2;PMS_P1;PMS_P2;Temp;Humidity;BMP_temperature;BMP_pressure;BME280_temperature;BME280_humidity;BME280_pressure;Samples;Min_cycle;Max_cycle;Signal;HPM_P1;HPM_P2
2021/07/06 00:00:20;;;;;;;7.80;4.08;;;;;;;19.33;93.41;99823.07;1760392;81;20913;-40
2021/07/06 00:02:49;;;;;;;5.42;3.60;;;;;;;19.32;93.58;99822.22;1760311;81;20896;-41
2021/07/06 00:05:15;;;;;;;4.37;4.00;;;;;;;19.32;93.65;99829.23;1760506;81;21319;-40
2021/07/06 00:07:42;;;;;;;10.03;4.00;;;;;;;19.30;93.74;99821.48;1760508;80;21827;-41
2021/07/06 00:10:11;;;;;;;5.75;3.65;;;;;;;19.30;93.94;99829.34;1760257;80;20877;-38
2021/07/06 00:12:37;;;;;;;8.20;3.87;;;;;;;19.30;93.99;99833.73;1761633;81;20941;-40
2021/07/06 00:15:06;;;;;;;4.95;3.45;;;;;;;19.32;94.14;99834.48;1763595;81;21407;-41
2021/07/06 00:17:32;;;;;;;4.37;3.95;;;;;;;19.33;94.23;99833.57;1763547;80;21008;-38
2021/07/06 00:19:59;;;;;;;7.03;3.70;;;;;;;19.34;94.21;99835.25;1763653;81;21117;-40
2021/07/06 00:22:25;;;;;;;5.33;4.20;;;;;;;19.34;94.27;99833.45;1763609;81;20984;-40
2021/07/06 00:24:52;;;;;;;6.42;3.72;;;;;;;19.34;94.30;99839.19;1763004;81;20938;-40
2021/07/06 00:27:18;;;;;;;4.83;3.67;;;;;;;19.33;94.25;99838.81;1763090;81;20851;-39
2021/07/06 00:29:45;;;;;;;4.60;3.90;;;;;;;19.31;94.33;99841.52;1737390;81;21420;-41
2021/07/06 00:32:11;;;;;;;6.72;4.00;;;;;;;19.30;94.43;99845.55;1763242;81;21914;-40
2021/07/06 00:34:38;;;;;;;5.97;3.55;;;;;;;19.28;94.42;99842.18;1762969;81;21526;-38
2021/07/06 00:37:05;;;;;;;4.72;3.85;;;;;;;19.27;94.50;99848.37;1763240;81;20889;-41
2021/07/06 00:39:32;;;;;;;7.20;3.92;;;;;;;19.22;94.66;99847.38;1763159;81;21577;-38
2021/07/06 00:41:58;;;;;;;12.07;4.35;;;;;;;19.21;94.68;99848.32;1763175;80;21509;-38
2021/07/06 00:44:25;;;;;;;5.78;4.33;;;;;;;19.17;94.85;99846.35;1763110;81;21147;-38
2021/07/06 00:46:52;;;;;;;6.72;4.85;;;;;;;19.17;95.01;99847.66;1763055;81;21490;-40
2021/07/06 00:49:19;;;;;;;6.33;4.12;;;;;;;19.15;95.08;99849.55;1762996;81;20893;-39
2021/07/06 00:51:46;;;;;;;6.10;4.00;;;;;;;19.14;95.27;99850.48;1762813;81;20949;-39
2021/07/06 00:54:12;;;;;;;5.62;4.37;;;;;;;19.12;95.26;99851.06;1763088;81;21553;-38
2021/07/06 00:56:40;;;;;;;9.15;3.47;;;;;;;19.10;95.48;99853.77;1762877;81;21262;-40
2021/07/06 00:59:07;;;;;;;7.05;3.40;;;;;;;19.09;95.62;99852.08;1762865;81;21016;-39
2021/07/06 01:01:35;;;;;;;6.22;4.12;;;;;;;19.08;95.68;99858.75;1763028;81;21474;-39
2021/07/06 01:04:03;;;;;;;5.33;3.52;;;;;;;19.07;95.81;99857.04;1763116;81;20933;-42
2021/07/06 01:06:29;;;;;;;5.03;4.10;;;;;;;19.06;95.99;99856.67;1737463;81;20976;-41
2021/07/06 01:08:56;;;;;;;6.08;3.60;;;;;;;19.04;96.12;99863.34;1763061;81;21137;-42
2021/07/06 01:11:22;;;;;;;7.05;3.95;;;;;;;19.04;96.22;99866.42;1763235;81;21431;-38
2021/07/06 01:13:49;;;;;;;5.20;4.70;;;;;;;19.05;96.31;99865.02;1750556;81;21426;-41
2021/07/06 01:16:16;;;;;;;6.37;3.72;;;;;;;19.04;96.38;99869.90;1746725;82;20865;-40
2021/07/06 01:18:44;;;;;;;6.83;3.65;;;;;;;19.03;96.36;99876.53;1746555;80;21451;-38
2021/07/06 01:21:10;;;;;;;8.30;3.95;;;;;;;19.01;96.41;99881.04;1746643;82;21199;-38
2021/07/06 01:23:37;;;;;;;4.30;4.03;;;;;;;18.99;96.54;99879.84;1746562;80;21430;-38
2021/07/06 01:26:06;;;;;;;3.75;3.55;;;;;;;18.99;96.60;99880.30;1746867;82;21451;-39
2021/07/06 01:28:36;;;;;;;11.03;3.90;;;;;;;18.96;96.66;99889.19;1746558;80;20964;-40
2021/07/06 01:31:02;;;;;;;9.83;4.10;;;;;;;18.94;96.71;99887.95;1746612;80;21019;-41
2021/07/06 01:33:31;;;;;;;4.78;4.10;;;;;;;18.92;96.85;99891.14;1746693;80;21093;-40
2021/07/06 01:36:02;;;;;;;6.75;4.35;;;;;;;18.92;96.90;99887.66;1746555;80;20885;-41
2021/07/06 01:38:28;;;;;;;6.15;3.75;;;;;;;18.91;97.01;99897.78;1746716;82;20998;-40
2021/07/06 01:40:55;;;;;;;5.67;3.75;;;;;;;18.91;97.12;99892.54;1746686;80;20881;-39
2021/07/06 01:43:22;;;;;;;6.17;4.12;;;;;;;18.90;97.23;99896.95;1725581;82;20996;-38
2021/07/06 01:45:49;;;;;;;5.78;3.67;;;;;;;18.89;97.27;99893.96;1746687;82;21146;-39
2021/07/06 01:48:15;;;;;;;5.40;4.37;;;;;;;18.88;97.33;99897.52;1746936;82;22335;-40
2021/07/06 01:50:43;;;;;;;4.25;3.83;;;;;;;18.89;97.45;99900.97;1746783;80;21378;-38
2021/07/06 01:53:14;;;;;;;9.20;3.80;;;;;;;18.89;97.51;99903.59;1746816;80;21031;-39
2021/07/06 01:55:43;;;;;;;8.43;4.25;;;;;;;18.87;97.54;99908.09;1746608;82;21007;-40
2021/07/06 01:58:12;;;;;;;3.55;3.35;;;;;;;18.86;97.54;99904.64;1746981;82;21936;-40
2021/07/06 02:00:44;;;;;;;3.95;3.70;;;;;;;18.86;97.61;99908.58;1746549;82;21443;-41
2021/07/06 02:03:11;;;;;;;6.75;4.20;;;;;;;18.86;97.64;99905.09;1746906;82;21691;-39
2021/07/06 02:05:46;;;;;;;5.45;4.30;;;;;;;18.85;97.70;99908.66;1746665;80;20948;-38
2021/07/06 02:08:18;;;;;;;5.90;4.90;;;;;;;18.84;97.78;99901.28;1747016;80;20881;-40
2021/07/06 02:10:48;;;;;;;6.33;3.90;;;;;;;18.82;97.85;99905.78;1746558;82;21235;-40
2021/07/06 02:13:19;;;;;;;5.20;4.20;;;;;;;18.80;97.83;99909.79;1753782;80;21011;-40
2021/07/06 02:15:46;;;;;;;7.72;3.87;;;;;;;18.81;97.96;99908.00;1764299;81;21368;-40
2021/07/06 02:18:20;;;;;;;12.03;4.30;;;;;;;18.83;98.16;99917.09;1765413;81;20902;-40
2021/07/06 02:20:45;;;;;;;6.15;4.10;;;;;;;18.85;98.22;99918.69;1764679;81;20926;-39
2021/07/06 02:23:12;;;;;;;7.30;4.30;;;;;;;18.89;98.23;99920.19;1765105;80;21925;-39
2021/07/06 02:25:41;;;;;;;10.75;4.47;;;;;;;18.93;98.21;99925.61;1765092;81;21641;-40
2021/07/06 02:28:07;;;;;;;7.72;4.35;;;;;;;18.99;98.20;99929.67;1765225;81;20857;-38
2021/07/06 02:30:34;;;;;;;8.45;4.30;;;;;;;19.05;98.14;99921.86;1765318;80;21515;-41
2021/07/06 02:33:00;;;;;;;4.58;4.15;;;;;;;19.11;98.05;99933.30;1765342;81;21506;-41
2021/07/06 02:35:27;;;;;;;6.08;4.33;;;;;;;19.16;97.83;99925.98;1765161;81;21732;-39
2021/07/06 02:37:56;;;;;;;4.33;3.92;;;;;;;19.19;97.60;99925.78;1765302;80;20968;-38
2021/07/06 02:40:23;;;;;;;4.42;4.12;;;;;;;19.23;97.38;99925.96;1737189;81;21463;-39
2021/07/06 02:42:50;;;;;;;4.58;4.10;;;;;;;19.25;97.14;99920.62;1720370;81;21011;-39
2021/07/06 02:45:17;;;;;;;11.43;4.22;;;;;;;19.26;96.98;99921.45;1765052;81;20976;-39
2021/07/06 02:47:45;;;;;;;8.18;4.83;;;;;;;19.27;96.68;99931.01;1762361;80;21136;-40
2021/07/06 02:50:13;;;;;;;9.85;4.20;;;;;;;19.27;96.59;99931.01;1765044;81;21478;-42
2021/07/06 02:52:39;;;;;;;10.90;4.87;;;;;;;19.27;96.50;99933.18;1765485;81;20901;-42
2021/07/06 02:55:07;;;;;;;5.30;4.30;;;;;;;19.27;96.44;99933.63;1765115;80;20897;-40
2021/07/06 02:57:34;;;;;;;4.75;4.20;;;;;;;19.29;96.50;99931.75;1765340;81;20976;-39
2021/07/06 03:00:14;;;;;;;10.38;4.83;;;;;;;19.31;96.42;99930.73;1765330;80;21134;-40
2021/07/06 03:02:44;;;;;;;6.15;4.10;;;;;;;19.33;96.49;99934.58;1764900;81;20953;-40
2021/07/06 03:05:12;;;;;;;6.70;4.83;;;;;;;19.38;96.41;99935.95;1765085;81;21012;-38
2021/07/06 03:07:39;;;;;;;6.40;4.42;;;;;;;19.45;96.32;99939.48;1737455;81;20984;-38
2021/07/06 03:10:08;;;;;;;10.50;4.58;;;;;;;19.51;96.14;99941.25;1764972;80;21392;-40
2021/07/06 03:12:34;;;;;;;4.95;4.33;;;;;;;19.56;95.86;99940.97;1765241;81;21110;-39
2021/07/06 03:15:01;;;;;;;5.05;4.67;;;;;;;19.61;95.60;99940.20;1762768;81;20949;-38
2021/07/06 03:17:28;;;;;;;10.35;5.67;;;;;;;19.67;95.43;99938.97;1762871;81;20941;-38
2021/07/06 03:19:54;;;;;;;7.37;4.80;;;;;;;19.74;95.22;99942.86;1762924;81;20972;-41
2021/07/06 03:22:21;;;;;;;5.08;4.35;;;;;;;19.81;94.97;99941.52;1762927;81;20933;-40
2021/07/06 03:24:47;;;;;;;6.78;4.55;;;;;;;19.86;94.53;99944.34;1762915;80;21107;-40
2021/07/06 03:27:14;;;;;;;6.35;4.00;;;;;;;19.89;94.29;99949.38;1762845;80;21511;-38
2021/07/06 03:29:40;;;;;;;6.20;4.42;;;;;;;19.92;93.96;99942.64;1763156;80;21551;-39
2021/07/06 03:32:07;;;;;;;8.93;5.03;;;;;;;19.94;93.81;99942.07;1763271;81;21460;-38
2021/07/06 03:34:34;;;;;;;9.40;4.83;;;;;;;19.98;93.61;99940.09;1762991;81;21004;-39
2021/07/06 03:37:02;;;;;;;5.15;4.65;;;;;;;19.99;93.38;99943.91;1763161;81;21316;-41
2021/07/06 03:39:30;;;;;;;10.00;4.75;;;;;;;20.01;93.28;99943.34;1762999;81;20961;-41
2021/07/06 03:41:57;;;;;;;7.97;4.37;;;;;;;20.05;93.13;99946.13;1762862;81;20913;-41
2021/07/06 03:44:23;;;;;;;8.33;5.10;;;;;;;20.08;92.94;99946.41;1762959;81;20980;-38
2021/07/06 03:46:50;;;;;;;10.90;4.45;;;;;;;20.14;92.86;99943.85;1763271;81;20933;-41
2021/07/06 03:49:16;;;;;;;10.82;5.00;;;;;;;20.25;92.78;99941.33;1762938;80;21134;-41
2021/07/06 03:51:42;;;;;;;7.65;4.92;;;;;;;20.37;92.41;99948.41;1762924;81;20897;-38
2021/07/06 03:54:09;;;;;;;6.05;4.92;;;;;;;20.47;91.88;99949.94;1762950;81;20893;-39
2021/07/06 03:56:36;;;;;;;7.90;5.30;;;;;;;20.51;91.20;99953.17;1762774;80;21000;-40
2021/07/06 03:59:02;;;;;;;6.45;4.67;;;;;;;20.52;90.91;99946.97;1763139;81;20933;-39
2021/07/06 04:01:29;;;;;;;13.68;5.37;;;;;;;20.56;90.57;99953.70;1762992;80;21092;-39
2021/07/06 04:03:56;;;;;;;9.93;5.37;;;;;;;20.61;90.37;99941.10;1763011;81;20945;-38
2021/07/06 04:06:22;;;;;;;11.45;6.42;;;;;;;20.68;90.07;99941.50;1763423;81;20909;-38
2021/07/06 04:08:50;;;;;;;6.25;4.97;;;;;;;20.73;89.75;99944.67;1763338;81;21036;-40
2021/07/06 04:11:17;;;;;;;10.00;5.28;;;;;;;20.79;89.24;99938.13;1763381;80;20913;-39
2021/07/06 04:13:43;;;;;;;6.22;5.25;;;;;;;20.81;88.92;99945.46;1757925;81;21157;-39
2021/07/06 04:16:10;;;;;;;10.00;4.67;;;;;;;20.86;88.80;99944.69;1746624;82;20992;-41
2021/07/06 04:18:37;;;;;;;5.22;4.70;;;;;;;20.91;88.37;99950.47;1746857;80;21411;-39
2021/07/06 04:21:06;;;;;;;4.75;4.45;;;;;;;20.96;87.62;99954.06;1746723;82;20904;-40
2021/07/06 04:23:34;;;;;;;6.05;4.83;;;;;;;21.00;87.63;99953.39;1746742;82;20968;-41
2021/07/06 04:26:02;;;;;;;9.38;5.50;;;;;;;21.07;87.24;99953.31;1745651;82;21096;-39
2021/07/06 04:28:28;;;;;;;6.17;5.37;;;;;;;21.16;86.79;99964.52;1746565;82;20851;-40
2021/07/06 04:30:54;;;;;;;7.70;4.97;;;;;;;21.21;86.42;99962.40;1746772;80;20928;-38
2021/07/06 04:33:21;;;;;;;6.03;5.55;;;;;;;21.24;86.10;99959.55;1746678;82;21046;-40
2021/07/06 04:35:47;;;;;;;5.17;4.70;;;;;;;21.27;85.69;99961.59;1746662;82;20975;-39
2021/07/06 04:38:13;;;;;;;5.90;5.40;;;;;;;21.30;85.01;99961.36;1746736;80;21114;-39
2021/07/06 04:40:40;;;;;;;5.30;4.90;;;;;;;21.32;84.99;99959.46;1746897;82;21812;-39
2021/07/06 04:43:07;;;;;;;5.67;5.08;;;;;;;21.38;84.47;99961.68;1746662;80;21451;-39
2021/07/06 04:45:37;;;;;;;7.17;5.08;;;;;;;21.41;84.27;99973.30;1746601;82;20984;-38
2021/07/06 04:48:05;;;;;;;8.80;4.85;;;;;;;21.48;83.92;99975.02;1746736;82;20889;-38
2021/07/06 04:50:35;;;;;;;7.45;4.55;;;;;;;21.52;83.73;99979.11;1725569;82;21178;-41
2021/07/06 04:53:00;;;;;;;6.72;4.53;;;;;;;21.54;82.99;99987.24;1746593;80;20889;-41
2021/07/06 04:55:26;;;;;;;6.15;4.53;;;;;;;21.59;82.85;99984.75;1747184;82;21030;-40
2021/07/06 04:57:53;;;;;;;7.10;4.20;;;;;;;21.63;80.78;99984.42;1746652;82;20937;-41
2021/07/06 05:00:19;;;;;;;7.30;4.22;;;;;;;21.63;80.86;99991.50;1746644;82;21016;-39
2021/07/06 05:02:46;;;;;;;4.37;3.95;;;;;;;21.62;81.11;99986.70;1746618;82;21144;-40
2021/07/06 05:05:13;;;;;;;5.90;4.20;;;;;;;21.62;80.38;99989.82;1746645;80;20921;-39
2021/07/06 05:07:41;;;;;;;6.10;4.45;;;;;;;21.59;80.43;99992.19;1746608;82;21593;-40
2021/07/06 05:10:10;;;;;;;7.17;4.40;;;;;;;21.61;80.53;99994.23;1746690;82;21510;-38
2021/07/06 05:12:39;;;;;;;5.67;4.15;;;;;;;21.71;80.29;100000.17;1746603;82;20933;-39
2021/07/06 05:15:08;;;;;;;3.90;3.50;;;;;;;21.83;79.84;99994.02;1758840;81;21190;-39
2021/07/06 05:17:34;;;;;;;4.37;3.80;;;;;;;22.02;79.35;99995.30;1736982;81;21008;-41
2021/07/06 05:20:03;;;;;;;4.33;4.03;;;;;;;22.17;78.78;99996.78;1762919;81;21009;-39
2021/07/06 05:22:30;;;;;;;4.17;3.80;;;;;;;22.34;77.50;99998.64;1737137;81;20930;-41
2021/07/06 05:24:57;;;;;;;6.08;4.12;;;;;;;22.45;76.76;99998.66;1763013;81;21039;-41
2021/07/06 05:27:23;;;;;;;3.87;3.52;;;;;;;22.55;76.23;99998.83;1763002;81;21334;-40
2021/07/06 05:29:49;;;;;;;7.33;4.37;;;;;;;22.66;76.42;99993.59;1763000;81;20913;-40
2021/07/06 05:32:19;;;;;;;3.70;3.45;;;;;;;22.82;75.70;100001.62;1762852;80;21558;-40
2021/07/06 05:34:45;;;;;;;6.22;3.85;;;;;;;22.94;74.62;100005.11;1762743;80;21330;-41
2021/07/06 05:37:11;;;;;;;3.90;3.60;;;;;;;23.05;74.18;100002.95;1762956;80;20957;-40
2021/07/06 05:39:38;;;;;;;7.28;3.45;;;;;;;23.20;73.36;99987.23;1763027;81;21142;-42
2021/07/06 05:42:05;;;;;;;4.85;3.70;;;;;;;23.38;72.30;100000.80;1762873;80;20881;-40
2021/07/06 05:44:32;;;;;;;5.03;3.80;;;;;;;23.51;72.28;99998.02;1763032;80;20960;-39
2021/07/06 05:46:58;;;;;;;11.97;4.22;;;;;;;23.59;72.31;100000.52;1762710;81;20917;-41
2021/07/06 05:49:25;;;;;;;10.78;3.77;;;;;;;23.60;72.25;100007.47;1763249;81;21539;-40
2021/07/06 05:51:51;;;;;;;11.53;3.83;;;;;;;23.60;71.63;100010.11;1762883;81;21073;-40
2021/07/06 05:54:17;;;;;;;6.72;3.95;;;;;;;23.53;71.50;100013.25;1763324;81;20980;-39
2021/07/06 05:56:44;;;;;;;4.35;3.47;;;;;;;23.47;72.19;100015.08;1762964;80;21004;-38
2021/07/06 05:59:11;;;;;;;4.25;3.87;;;;;;;23.43;72.65;100015.44;1763119;81;20933;-39
2021/07/06 06:01:37;;;;;;;6.85;3.60;;;;;;;23.36;73.08;100017.72;1762820;80;21493;-38
2021/07/06 06:04:04;;;;;;;4.25;3.42;;;;;;;23.35;72.68;100014.72;1762934;81;21135;-39
2021/07/06 06:06:31;;;;;;;7.78;3.87;;;;;;;23.30;72.15;100020.38;1737603;80;20961;-40
2021/07/06 06:08:57;;;;;;;6.30;3.40;;;;;;;23.28;72.75;100021.45;1712334;81;20948;-41
2021/07/06 06:11:24;;;;;;;5.55;4.15;;;;;;;23.33;72.54;100024.56;1755509;81;20918;-40
2021/07/06 06:13:51;;;;;;;5.80;3.55;;;;;;;23.34;72.96;100027.09;1761223;81;21261;-39
2021/07/06 06:16:17;;;;;;;5.30;3.67;;;;;;;23.34;72.93;100031.52;1746694;82;21219;-39
2021/07/06 06:18:43;;;;;;;3.80;3.42;;;;;;;23.28;72.35;100033.33;1746805;80;20956;-38
2021/07/06 06:21:10;;;;;;;4.20;3.80;;;;;;;23.18;72.80;100036.67;1746784;81;20877;-39
2021/07/06 06:23:36;;;;;;;4.15;3.70;;;;;;;23.10;73.10;100036.42;1746637;80;21482;-38
2021/07/06 06:26:02;;;;;;;5.15;3.47;;;;;;;23.04;73.14;100034.27;1746582;82;21003;-41
2021/07/06 06:28:29;;;;;;;3.65;3.35;;;;;;;23.07;73.51;100033.55;1746690;81;21161;-40
2021/07/06 06:30:55;;;;;;;5.55;3.37;;;;;;;23.21;73.74;100039.53;1746603;82;20861;-40
2021/07/06 06:33:22;;;;;;;4.20;3.25;;;;;;;23.56;71.83;100029.34;1746473;80;21572;-41
2021/07/06 06:35:49;;;;;;;5.85;2.92;;;;;;;23.87;69.79;100035.25;1746403;80;20975;-41
2021/07/06 06:38:15;;;;;;;8.15;2.90;;;;;;;23.98;67.99;100041.84;1746639;82;20924;-40
2021/07/06 06:40:42;;;;;;;7.78;2.50;;;;;;;23.83;67.49;100042.11;1746611;82;21141;-40
2021/07/06 06:43:09;;;;;;;2.87;2.37;;;;;;;23.69;67.52;100041.09;1746873;82;20850;-40
2021/07/06 06:45:35;;;;;;;5.08;3.08;;;;;;;23.62;68.12;100047.80;1750312;81;20912;-40
2021/07/06 06:48:02;;;;;;;7.83;3.17;;;;;;;23.54;68.68;100050.59;1746497;82;21018;-41
2021/07/06 06:50:28;;;;;;;7.87;3.50;;;;;;;23.45;69.23;100051.33;1740230;82;20984;-39
2021/07/06 06:52:55;;;;;;;6.90;3.00;;;;;;;23.35;69.52;100039.80;1732636;80;20984;-40
2021/07/06 06:55:22;;;;;;;2.90;2.77;;;;;;;23.24;69.31;100048.06;1716657;83;20888;-41
2021/07/06 06:57:48;;;;;;;4.00;2.85;;;;;;;23.17;69.75;100049.52;1716624;82;21521;-38
2021/07/06 07:00:15;;;;;;;4.75;2.47;;;;;;;23.14;69.95;100036.56;1716682;82;20948;-40
2021/07/06 07:02:43;;;;;;;2.75;2.65;;;;;;;23.16;69.57;100040.38;1716899;81;21019;-38
2021/07/06 07:05:14;;;;;;;2.90;2.70;;;;;;;23.20;69.34;100047.09;1696444;83;21070;-38
2021/07/06 07:07:40;;;;;;;4.95;2.40;;;;;;;23.27;69.17;100047.03;1716689;83;20979;-40
2021/07/06 07:10:08;;;;;;;2.47;2.27;;;;;;;23.40;69.60;100053.50;1726983;82;21466;-40
2021/07/06 07:12:35;;;;;;;5.30;2.45;;;;;;;23.53;68.48;100048.91;1745308;82;20948;-38
2021/07/06 07:15:05;;;;;;;3.67;2.80;;;;;;;23.52;67.91;100045.91;1751538;80;21146;-41
2021/07/06 07:17:31;;;;;;;4.20;2.60;;;;;;;23.46;68.18;100049.52;1741208;81;21110;-40
2021/07/06 07:19:58;;;;;;;5.70;3.17;;;;;;;23.38;68.05;100052.29;1736897;81;20992;-39
2021/07/06 07:22:24;;;;;;;2.62;2.40;;;;;;;23.33;68.37;100047.00;1760270;81;20898;-41
2021/07/06 07:24:51;;;;;;;3.58;2.62;;;;;;;23.34;68.56;100056.60;1752321;81;21027;-40
2021/07/06 07:27:17;;;;;;;4.40;2.52;;;;;;;23.44;68.98;100056.72;1760699;80;20980;-38
2021/07/06 07:29:44;;;;;;;4.72;2.25;;;;;;;23.57;67.96;100057.44;1760604;80;21141;-38
2021/07/06 07:32:11;;;;;;;5.05;2.40;;;;;;;23.60;67.15;100049.73;1746525;81;20992;-39
2021/07/06 07:34:37;;;;;;;4.05;2.47;;;;;;;23.69;67.08;100047.69;1729342;81;20902;-41
2021/07/06 07:37:04;;;;;;;5.00;2.05;;;;;;;23.85;66.65;100049.08;1736186;81;21016;-38
2021/07/06 07:39:32;;;;;;;5.12;2.27;;;;;;;23.96;66.07;100048.56;1732316;81;20987;-41
2021/07/06 07:41:59;;;;;;;5.03;2.20;;;;;;;24.09;65.91;100044.47;1728856;81;21184;-39
2021/07/06 07:44:25;;;;;;;4.25;2.15;;;;;;;24.36;65.92;100043.14;1753038;81;20980;-39
2021/07/06 07:46:52;;;;;;;2.58;2.00;;;;;;;24.68;64.75;100051.52;1743717;81;21004;-38
2021/07/06 07:49:18;;;;;;;5.28;1.90;;;;;;;25.03;62.29;100056.60;1745898;81;20976;-39
2021/07/06 07:51:45;;;;;;;3.90;2.20;;;;;;;25.39;61.84;100053.89;1750357;81;21450;-41
2021/07/06 07:54:12;;;;;;;11.43;2.25;;;;;;;25.75;60.80;100060.08;1734779;81;21096;-41
2021/07/06 07:56:41;;;;;;;4.33;1.75;;;;;;;25.88;59.36;100061.62;1749426;81;20984;-41
2021/07/06 07:59:09;;;;;;;3.62;2.08;;;;;;;25.71;59.93;100060.48;1763161;81;21397;-39
2021/07/06 08:01:36;;;;;;;3.98;1.87;;;;;;;25.56;60.18;100066.18;1760306;81;20973;-39
2021/07/06 08:04:04;;;;;;;3.45;2.30;;;;;;;25.35;60.75;100058.25;1762939;81;20961;-41
2021/07/06 08:06:31;;;;;;;7.20;4.90;;;;;;;25.22;61.42;100055.84;1751515;81;21146;-41
2021/07/06 08:08:59;;;;;;;2.65;2.17;;;;;;;25.16;60.90;100042.67;1715501;82;20919;-41
2021/07/06 08:11:25;;;;;;;2.12;1.80;;;;;;;25.17;61.51;100063.35;1717512;81;20909;-41
2021/07/06 08:13:53;;;;;;;6.75;1.80;;;;;;;25.21;60.50;100069.58;1734624;81;20977;-42
2021/07/06 08:16:19;;;;;;;2.30;1.90;;;;;;;25.20;61.26;100070.55;1741999;80;20956;-39
2021/07/06 08:18:46;;;;;;;3.17;1.77;;;;;;;25.18;61.28;100067.20;1719268;82;21268;-39
2021/07/06 08:21:12;;;;;;;3.30;1.90;;;;;;;25.34;62.19;100068.50;1746980;82;20853;-40
2021/07/06 08:23:38;;;;;;;4.85;2.40;;;;;;;25.76;61.31;100063.08;1737627;82;20925;-39
2021/07/06 08:26:05;;;;;;;2.20;2.10;;;;;;;26.18;59.61;100059.38;1716804;81;20988;-40
2021/07/06 08:28:31;;;;;;;4.20;1.70;;;;;;;26.38;58.71;100057.54;1731384;81;21494;-39
2021/07/06 08:30:58;;;;;;;3.35;1.87;;;;;;;26.62;58.66;100054.92;1746361;80;21786;-41
2021/07/06 08:33:24;;;;;;;9.15;1.60;;;;;;;26.98;58.01;100050.32;1720428;82;21474;-39
2021/07/06 08:35:50;;;;;;;1.62;1.52;;;;;;;27.32;55.86;100048.92;1743389;82;21478;-40
2021/07/06 08:38:17;;;;;;;6.35;1.95;;;;;;;27.53;55.97;100056.19;1724393;82;21680;-41
2021/07/06 08:40:43;;;;;;;1.55;1.55;;;;;;;27.72;55.17;100042.92;1728031;82;21538;-40
2021/07/06 08:43:10;;;;;;;5.85;1.90;;;;;;;27.86;54.58;100045.55;1734552;82;21090;-38
2021/07/06 08:45:37;;;;;;;6.80;1.67;;;;;;;28.13;54.26;100047.79;1726470;82;20893;-40
2021/07/06 08:48:04;;;;;;;7.47;1.80;;;;;;;28.28;52.79;100052.95;1716857;82;20897;-41
2021/07/06 08:50:30;;;;;;;5.42;1.57;;;;;;;28.17;52.02;100049.21;1717122;83;20905;-40
2021/07/06 08:52:57;;;;;;;4.90;1.70;;;;;;;27.90;53.10;100055.74;1717211;82;20936;-41
2021/07/06 08:55:23;;;;;;;3.10;1.90;;;;;;;27.76;53.47;100062.89;1722745;81;21117;-39
2021/07/06 08:57:52;;;;;;;1.72;1.62;;;;;;;27.56;53.25;100060.86;1702098;82;21230;-38
2021/07/06 09:00:19;;;;;;;4.97;1.20;;;;;;;27.49;53.38;100058.77;1680479;85;21011;-42
2021/07/06 09:03:04;;;;;;;3.22;1.70;;;;;;;27.55;53.20;100058.71;1663782;84;21028;-40
2021/07/06 09:05:31;;;;;;;1.95;1.42;;;;;;;27.68;54.12;100061.02;1704029;84;20965;-39
2021/07/06 09:07:58;;;;;;;10.75;1.80;;;;;;;27.77;54.29;100064.09;1703017;84;21132;-40
2021/07/06 09:10:40;;;;;;;4.60;1.30;;;;;;;27.57;54.12;100066.52;1670345;85;21008;-41
2021/07/06 09:13:28;;;;;;;3.37;1.30;;;;;;;27.38;54.99;100063.79;1690091;84;21577;-41
2021/07/06 09:15:56;;;;;;;3.90;1.47;;;;;;;27.51;54.64;100067.46;1673560;83;20963;-40
2021/07/06 09:18:31;;;;;;;5.40;1.40;;;;;;;27.59;54.04;100068.05;1689512;84;21073;-41
2021/07/06 09:21:02;;;;;;;6.95;1.50;;;;;;;27.58;54.66;100062.88;1713604;83;21052;-40
2021/07/06 09:23:37;;;;;;;2.67;1.40;;;;;;;27.61;54.78;100067.41;1670415;84;21540;-41
2021/07/06 09:26:22;;;;;;;7.43;1.60;;;;;;;27.65;54.95;100059.95;1695167;84;21611;-38
2021/07/06 09:28:51;;;;;;;1.45;1.35;;;;;;;27.58;54.13;100061.55;1690997;84;21014;-41
2021/07/06 09:31:33;;;;;;;5.40;1.62;;;;;;;27.47;54.68;100066.53;1669499;83;21738;-39
2021/07/06 09:34:04;;;;;;;2.65;1.30;;;;;;;27.51;54.44;100065.28;1679755;83;21173;-39
2021/07/06 09:36:45;;;;;;;3.50;1.22;;;;;;;27.59;55.44;100056.57;1694970;84;20954;-39
2021/07/06 09:39:24;;;;;;;7.62;1.40;;;;;;;27.62;54.56;100077.05;1715673;83;20994;-41
2021/07/06 09:41:59;;;;;;;3.25;1.35;;;;;;;27.48;54.01;100066.41;1692784;83;20943;-39
2021/07/06 09:44:43;;;;;;;2.70;1.47;;;;;;;27.40;54.86;100064.95;1699221;83;21564;-41
2021/07/06 09:47:13;;;;;;;6.03;2.52;;;;;;;27.59;56.25;100072.52;1665492;86;21039;-40
2021/07/06 09:49:55;;;;;;;7.35;1.47;;;;;;;27.81;54.27;100077.92;1694684;84;21580;-39
2021/07/06 09:52:22;;;;;;;5.45;1.57;;;;;;;27.75;55.03;100071.86;1693318;84;20919;-40
2021/07/06 09:54:51;;;;;;;4.60;1.60;;;;;;;27.63;55.13;100072.56;1694734;84;21040;-39
2021/07/06 09:57:27;;;;;;;4.85;2.00;;;;;;;27.47;54.74;100071.84;1665813;86;21419;-41
2021/07/06 10:00:14;;;;;;;6.28;1.75;;;;;;;27.23;55.79;100070.56;1694804;84;21003;-41
2021/07/06 10:02:44;;;;;;;17.15;1.72;;;;;;;27.19;55.71;100079.81;1665821;86;21561;-41
2021/07/06 10:05:16;;;;;;;5.67;1.72;;;;;;;27.53;56.00;100078.78;1695061;84;21414;-39
2021/07/06 10:07:42;;;;;;;3.30;1.85;;;;;;;27.72;55.37;100065.52;1679888;85;20958;-41
2021/07/06 10:10:12;;;;;;;3.83;1.52;;;;;;;27.68;55.15;100075.12;1679957;84;21010;-40
2021/07/06 10:12:41;;;;;;;1.80;1.70;;;;;;;27.50;56.23;100080.38;1680018;85;21765;-41
2021/07/06 10:15:10;;;;;;;6.45;1.90;;;;;;;27.26;55.94;100088.86;1678322;85;21406;-40
2021/07/06 10:17:38;;;;;;;3.72;1.95;;;;;;;26.96;57.26;100077.03;1664985;86;20984;-39
2021/07/06 10:20:10;;;;;;;5.28;2.55;;;;;;;26.74;57.43;100082.64;1664997;86;21472;-41
2021/07/06 10:22:38;;;;;;;11.30;3.00;;;;;;;26.37;57.52;100096.98;1664556;85;20905;-41
2021/07/06 10:25:07;;;;;;;18.20;2.90;;;;;;;25.96;61.50;100103.70;1665216;86;21106;-39
2021/07/06 10:27:36;;;;;;;8.53;2.37;;;;;;;25.05;67.72;100111.10;1636369;86;21005;-42
2021/07/06 10:30:09;;;;;;;5.22;3.85;;;;;;;23.91;71.71;100113.34;1665051;86;21008;-38
2021/07/06 10:32:52;;;;;;;5.62;2.47;;;;;;;23.20;75.07;100110.45;1665038;85;21019;-39
2021/07/06 10:35:43;;;;;;;6.97;2.60;;;;;;;22.85;77.33;100113.50;1664982;86;21450;-38
2021/07/06 10:38:33;;;;;;;5.67;2.40;;;;;;;22.73;79.25;100110.00;1665025;86;21786;-40
2021/07/06 10:41:17;;;;;;;6.50;2.58;;;;;;;22.79;79.51;100110.02;1665031;86;21031;-42
2021/07/06 10:43:49;;;;;;;3.02;2.60;;;;;;;23.02;79.92;100117.52;1664999;85;21605;-40
2021/07/06 10:46:29;;;;;;;7.60;2.42;;;;;;;23.35;80.69;100126.46;1665088;86;21023;-38
2021/07/06 10:49:28;;;;;;;8.98;3.02;;;;;;;23.67;76.11;100119.63;1664267;86;21031;-41
2021/07/06 10:51:55;;;;;;;6.50;2.30;;;;;;;23.93;73.14;100118.84;1665211;84;21138;-40
2021/07/06 10:54:35;;;;;;;10.88;2.77;;;;;;;24.04;72.77;100128.59;1672886;84;20960;-40
2021/07/06 10:57:13;;;;;;;7.92;2.15;;;;;;;24.15;71.95;100121.61;1678588;84;21004;-41
2021/07/06 10:59:40;;;;;;;5.35;2.30;;;;;;;24.31;71.48;100123.34;1657878;84;20952;-42
2021/07/06 11:02:25;;;;;;;4.05;2.25;;;;;;;24.52;70.79;100127.36;1693242;84;21004;-40
2021/07/06 11:04:55;;;;;;;4.10;2.10;;;;;;;24.62;69.83;100132.70;1653442;85;21052;-39
2021/07/06 11:07:42;;;;;;;3.62;1.80;;;;;;;24.65;68.93;100128.51;1682487;84;21004;-41
2021/07/06 11:10:10;;;;;;;6.42;2.42;;;;;;;24.58;67.71;100129.96;1685287;84;21027;-41
2021/07/06 11:12:44;;;;;;;5.22;2.10;;;;;;;24.53;68.56;100133.48;1692773;84;20957;-40
2021/07/06 11:15:18;;;;;;;14.95;2.22;;;;;;;24.37;69.05;100130.77;1693426;84;21014;-40
2021/07/06 11:17:47;;;;;;;5.72;2.22;;;;;;;24.30;69.59;100144.14;1663586;84;21071;-39
2021/07/06 11:20:20;;;;;;;6.35;2.20;;;;;;;24.30;69.49;100160.00;1688767;84;21004;-39
2021/07/06 11:22:55;;;;;;;5.50;2.22;;;;;;;24.29;68.34;100146.42;1710825;82;21426;-39
2021/07/06 11:25:36;;;;;;;7.12;2.00;;;;;;;24.29;68.70;100158.82;1702686;83;21550;-41
2021/07/06 11:28:18;;;;;;;7.80;2.33;;;;;;;24.44;69.16;100150.12;1683902;84;20941;-41
2021/07/06 11:32:18;;;;;;;8.75;2.47;;;;;;;24.92;68.92;100147.51;1797584;79;22604;-39
2021/07/06 11:34:45;;;;;;;8.43;2.90;;;;;;;25.18;67.21;100145.31;1757592;80;20928;-40
2021/07/06 11:37:17;;;;;;;2.33;1.98;;;;;;;25.48;64.20;100144.99;1738183;81;21051;-41